Time;durP1;ratioP1;P1;durP2;ratioP2;P2;SDS_P1;SDS_P2;PMS_P1;PMS_P2;Temp;Humidity;BMP_temperature;BMP_pressure;BME280_temperature;BME280_humidity;BME280_pressure;Samples;Min_cycle;Max_cycle;Signal;HPM_P1;HPM_P2
2022/10/26 00:00:52;;;;;;;1.33;0.20;;;;;;;14.21;100.00;101200.50;5064469;28;20040;-86
2022/10/26 00:03:18;;;;;;;3.30;0.75;;;;;;;14.22;100.00;101210.00;5063589;28;20176;-85
2022/10/26 00:05:44;;;;;;;3.97;0.30;;;;;;;14.22;100.00;101211.78;5057307;28;20052;-84
2022/10/26 00:08:10;;;;;;;3.53;0.38;;;;;;;14.22;100.00;101214.41;5064604;28;20112;-88
2022/10/26 00:10:37;;;;;;;3.58;0.40;;;;;;;14.18;100.00;101208.66;5047004;28;20106;-87
2022/10/26 00:13:04;;;;;;;2.63;0.20;;;;;;;14.18;100.00;101202.59;5046610;28;20412;-87
2022/10/26 00:15:30;;;;;;;3.25;0.30;;;;;;;14.15;100.00;101210.78;5063679;28;20036;-89
2022/10/26 00:17:56;;;;;;;4.65;0.40;;;;;;;14.09;100.00;101204.34;5064093;28;20032;-87
2022/10/26 00:20:22;;;;;;;2.33;0.30;;;;;;;14.07;100.00;101206.28;5050816;28;20046;-87
2022/10/26 00:22:47;;;;;;;2.78;0.30;;;;;;;14.05;100.00;101199.53;5047558;28;20094;-87
2022/10/26 00:25:13;;;;;;;1.42;0.30;;;;;;;14.04;100.00;101209.19;5064400;28;20024;-84
2022/10/26 00:27:38;;;;;;;3.47;0.32;;;;;;;14.01;100.00;101209.50;5056132;28;20036;-88
2022/10/26 00:30:05;;;;;;;1.35;0.30;;;;;;;14.01;100.00;101208.66;5068028;28;20025;-86
2022/10/26 00:32:31;;;;;;;1.63;0.50;;;;;;;14.00;100.00;101209.63;5067899;28;20047;-85
2022/10/26 00:34:56;;;;;;;3.67;0.65;;;;;;;14.01;100.00;101209.50;5070275;28;20085;-88
2022/10/26 00:37:22;;;;;;;5.43;0.32;;;;;;;13.98;100.00;101209.78;5069172;28;20126;-85
2022/10/26 00:39:47;;;;;;;9.82;0.50;;;;;;;13.99;100.00;101210.59;5066411;28;20135;-88
2022/10/26 00:42:18;;;;;;;1.23;0.30;;;;;;;13.97;100.00;101213.38;5069149;28;20029;-85
2022/10/26 00:44:46;;;;;;;3.97;0.30;;;;;;;13.98;100.00;101225.50;5054264;28;20036;-90
2022/10/26 00:47:34;;;;;;;3.03;0.45;;;;;;;13.98;100.00;101219.44;5068392;28;20404;-89
2022/10/26 00:50:06;;;;;;;2.38;0.40;;;;;;;14.00;100.00;101218.31;5056883;28;20044;-88
2022/10/26 00:52:32;;;;;;;3.83;0.40;;;;;;;13.99;100.00;101206.19;5053553;28;20032;-89
2022/10/26 00:54:57;;;;;;;2.78;0.35;;;;;;;13.98;100.00;101212.41;5068138;28;20040;-87
2022/10/26 00:57:24;;;;;;;4.95;0.55;;;;;;;13.97;100.00;101213.38;5052487;28;20024;-89
2022/10/26 00:59:53;;;;;;;4.07;0.57;;;;;;;13.95;100.00;101221.38;5068821;28;20043;-87
2022/10/26 01:02:19;;;;;;;2.25;0.30;;;;;;;13.96;100.00;101222.22;5050195;28;20040;-87
2022/10/26 01:04:46;;;;;;;3.10;0.68;;;;;;;13.94;100.00;101214.50;5064426;28;20115;-88
2022/10/26 01:07:12;;;;;;;4.43;0.35;;;;;;;13.90;100.00;101205.28;5064272;28;20509;-88
2022/10/26 01:09:38;;;;;;;1.52;0.30;;;;;;;13.91;100.00;101209.56;5067810;28;20044;-83
2022/10/26 01:12:04;;;;;;;2.97;0.40;;;;;;;13.92;100.00;101199.91;5052152;28;20036;-87
2022/10/26 01:14:31;;;;;;;6.10;0.50;;;;;;;13.91;100.00;101206.09;5066877;28;20107;-88
2022/10/26 01:17:11;;;;;;;2.50;0.30;;;;;;;13.88;100.00;101199.38;5048338;28;20379;-86
2022/10/26 01:19:56;;;;;;;2.67;0.55;;;;;;;13.85;100.00;101196.22;5068880;28;20449;-89
2022/10/26 01:22:40;;;;;;;5.13;0.50;;;;;;;13.89;100.00;101193.16;5066771;28;20028;-90
2022/10/26 01:25:30;;;;;;;2.70;0.40;;;;;;;13.90;100.00;101192.19;5065929;28;20549;-87
2022/10/26 01:27:56;;;;;;;4.50;0.40;;;;;;;13.91;100.00;101193.00;5067578;28;20040;-86
2022/10/26 01:30:44;;;;;;;1.65;0.40;;;;;;;13.85;100.00;101188.34;5058335;28;20036;-86
2022/10/26 01:33:18;;;;;;;3.33;0.30;;;;;;;13.85;100.00;101207.53;5065962;28;20041;-88
2022/10/26 01:36:25;;;;;;;4.53;0.43;;;;;;;13.84;100.00;101207.66;5067754;28;20055;-93
2022/10/26 01:39:04;;;;;;;0.80;0.30;;;;;;;13.81;100.00;101203.53;4982050;28;20030;-91
2022/10/26 01:41:42;;;;;;;2.78;0.30;;;;;;;13.81;100.00;101215.81;4970897;28;20055;-88
2022/10/26 01:44:15;;;;;;;2.55;0.40;;;;;;;13.79;100.00;101209.91;4986557;28;20042;-86
2022/10/26 01:46:46;;;;;;;5.15;0.30;;;;;;;13.77;100.00;101215.28;4984816;28;20494;-87
2022/10/26 01:49:14;;;;;;;3.40;0.40;;;;;;;13.75;100.00;101211.16;4985569;28;20061;-88
2022/10/26 01:51:43;;;;;;;2.92;0.30;;;;;;;13.75;100.00;101212.00;4966090;28;20046;-86
2022/10/26 01:54:09;;;;;;;3.17;0.35;;;;;;;13.75;100.00;101212.00;4984074;28;20054;-85
2022/10/26 01:56:38;;;;;;;3.97;0.20;;;;;;;13.77;100.00;101215.28;4984309;28;20038;-90
2022/10/26 01:59:28;;;;;;;4.22;0.55;;;;;;;13.81;100.00;101219.25;4997256;28;20104;-85
2022/10/26 02:02:28;;;;;;;1.90;0.60;;;;;;;13.79;100.00;101221.19;4985640;28;20066;-87
2022/10/26 02:05:25;;;;;;;5.35;0.30;;;;;;;13.84;100.00;101221.59;4982775;28;20591;-91
2022/10/26 02:08:21;;;;;;;7.60;0.50;;;;;;;13.89;100.00;101218.53;4968587;28;20046;-90
2022/10/26 02:10:55;;;;;;;1.88;0.30;;;;;;;13.91;100.00;101211.34;4976774;28;20077;-86
2022/10/26 02:13:32;;;;;;;3.45;0.30;;;;;;;13.92;100.00;101205.97;5030625;28;20048;-87
2022/10/26 02:15:57;;;;;;;2.65;0.30;;;;;;;13.97;100.00;101202.06;5067859;28;20036;-83
2022/10/26 02:18:41;;;;;;;3.72;0.25;;;;;;;13.95;100.00;101189.94;5062617;28;20495;-88
2022/10/26 02:21:14;;;;;;;5.25;0.40;;;;;;;13.94;100.00;101193.53;5070110;28;20172;-88
2022/10/26 02:23:44;;;;;;;1.98;0.30;;;;;;;13.91;100.00;101185.97;5068028;28;20042;-88
2022/10/26 02:26:12;;;;;;;3.20;0.40;;;;;;;13.93;100.00;101180.59;5067404;28;20526;-87
2022/10/26 02:28:43;;;;;;;2.17;0.30;;;;;;;13.93;100.00;101183.22;5064413;28;20067;-88
2022/10/26 02:31:12;;;;;;;5.20;0.40;;;;;;;13.93;100.00;101186.66;5053117;28;20488;-87
2022/10/26 02:33:42;;;;;;;4.10;0.50;;;;;;;13.93;100.00;101180.59;5065933;28;20344;-88
2022/10/26 02:36:12;;;;;;;1.80;0.20;;;;;;;13.97;100.00;101175.88;5068603;28;20064;-87
2022/10/26 02:38:39;;;;;;;8.07;0.32;;;;;;;13.98;100.00;101162.63;5057881;28;20520;-87
2022/10/26 02:41:07;;;;;;;3.47;0.40;;;;;;;13.98;100.00;101165.25;5088941;28;20035;-88
2022/10/26 02:43:39;;;;;;;9.75;0.30;;;;;;;13.95;100.00;101158.50;5055431;28;20055;-90
2022/10/26 02:46:09;;;;;;;2.28;0.30;;;;;;;13.90;100.00;101149.44;5067199;28;20031;-88
2022/10/26 02:48:35;;;;;;;3.20;0.35;;;;;;;13.88;100.00;101146.97;5066592;28;20040;-89
2022/10/26 02:51:12;;;;;;;2.15;0.68;;;;;;;13.83;100.00;101146.59;5070580;28;20393;-89
2022/10/26 02:53:48;;;;;;;4.93;0.60;;;;;;;13.81;100.00;101145.09;5047698;28;20043;-86
2022/10/26 02:56:20;;;;;;;1.80;0.40;;;;;;;13.81;100.00;101147.72;5067513;28;20036;-86
2022/10/26 02:58:51;;;;;;;5.03;0.40;;;;;;;13.79;100.00;101142.63;5063323;28;20448;-87
2022/10/26 03:01:17;;;;;;;3.42;0.60;;;;;;;13.80;100.00;101153.94;5064927;28;20116;-87
2022/10/26 03:03:42;;;;;;;5.18;0.50;;;;;;;13.79;100.00;101168.81;5066256;28;20100;-88
2022/10/26 03:06:08;;;;;;;4.07;0.63;;;;;;;13.81;100.00;101176.53;5068399;28;20028;-88
2022/10/26 03:08:33;;;;;;;3.85;0.63;;;;;;;13.80;100.00;101169.66;5066002;28;20043;-86
2022/10/26 03:10:58;;;;;;;5.45;0.40;;;;;;;13.70;100.00;101182.81;5047946;28;20070;-89
2022/10/26 03:13:24;;;;;;;2.45;0.73;;;;;;;13.66;100.00;101183.25;5055763;28;20387;-86
2022/10/26 03:15:49;;;;;;;5.57;0.40;;;;;;;13.63;100.00;101179.16;5051197;28;20368;-87
2022/10/26 03:18:15;;;;;;;4.53;0.82;;;;;;;13.63;100.00;101179.16;5064635;28;20444;-88
2022/10/26 03:20:44;;;;;;;2.05;0.30;;;;;;;13.63;100.00;101175.69;5044698;28;20037;-87
2022/10/26 03:23:09;;;;;;;2.35;0.70;;;;;;;13.63;100.00;101170.47;5065695;28;20045;-86
2022/10/26 03:25:35;;;;;;;5.68;0.40;;;;;;;13.66;100.00;101162.31;5066594;28;20368;-88
2022/10/26 03:28:03;;;;;;;3.58;0.30;;;;;;;13.68;100.00;101160.38;5065514;28;20143;-87
2022/10/26 03:30:29;;;;;;;2.13;0.32;;;;;;;13.68;100.00;101163.81;5067771;28;20036;-87
2022/10/26 03:32:55;;;;;;;5.32;1.15;;;;;;;13.70;100.00;101166.28;5067550;28;20036;-86
2022/10/26 03:35:21;;;;;;;8.00;0.85;;;;;;;13.70;100.00;101154.03;5066186;28;20079;-90
2022/10/26 03:37:47;;;;;;;7.75;1.05;;;;;;;13.70;100.00;101150.56;5066655;28;20052;-89
2022/10/26 03:40:13;;;;;;;5.53;1.15;;;;;;;13.68;100.00;101150.72;5067146;28;20025;-88
2022/10/26 03:42:39;;;;;;;4.60;1.20;;;;;;;13.70;100.00;101153.19;5061587;28;20029;-87
2022/10/26 03:45:06;;;;;;;3.78;1.27;;;;;;;13.76;100.00;101161.25;5046750;28;20123;-90
2022/10/26 03:47:31;;;;;;;3.97;0.90;;;;;;;13.79;100.00;101165.38;5066890;28;20037;-88
2022/10/26 03:49:56;;;;;;;3.63;0.90;;;;;;;13.84;100.00;101173.63;5059985;28;20052;-90
2022/10/26 03:52:23;;;;;;;1.20;0.40;;;;;;;13.82;100.00;101179.00;5039882;28;20024;-87
2022/10/26 03:54:49;;;;;;;3.42;0.45;;;;;;;13.84;100.00;101181.47;5047044;28;20078;-89
2022/10/26 03:57:15;;;;;;;1.42;0.30;;;;;;;13.78;100.00;101179.44;5057493;28;20044;-86
2022/10/26 03:59:40;;;;;;;1.52;0.30;;;;;;;13.72;100.00;101187.88;5065049;28;20068;-85
2022/10/26 04:02:06;;;;;;;1.00;0.30;;;;;;;13.69;100.00;101182.97;5043050;28;20056;-88
2022/10/26 04:04:31;;;;;;;1.63;0.50;;;;;;;13.68;100.00;101197.03;5042819;28;20052;-89
2022/10/26 04:06:57;;;;;;;2.33;0.40;;;;;;;13.65;100.00;101192.09;5042952;28;20068;-87
2022/10/26 04:09:22;;;;;;;0.88;0.22;;;;;;;13.66;100.00;101188.50;5043670;28;20025;-86
2022/10/26 04:11:48;;;;;;;2.55;0.20;;;;;;;13.67;100.00;101185.75;5032633;28;20107;-86
2022/10/26 04:14:13;;;;;;;2.33;0.40;;;;;;;13.69;100.00;101178.56;5045953;28;20033;-87
2022/10/26 04:16:39;;;;;;;2.15;0.40;;;;;;;13.73;100.00;101171.19;5039090;28;20455;-84
2022/10/26 04:19:05;;;;;;;2.13;0.38;;;;;;;13.76;100.00;101174.34;5037182;28;20098;-86
2022/10/26 04:21:32;;;;;;;2.80;0.40;;;;;;;13.77;100.00;101162.09;5044289;28;20439;-84
2022/10/26 04:23:57;;;;;;;1.83;0.40;;;;;;;13.77;100.00;101160.28;5043973;28;20480;-84
2022/10/26 04:26:23;;;;;;;1.83;0.50;;;;;;;13.78;100.00;101156.69;5033665;28;20041;-85
2022/10/26 04:28:48;;;;;;;5.55;0.60;;;;;;;13.77;100.00;101160.28;5029842;28;20070;-84
2022/10/26 04:31:13;;;;;;;3.03;0.80;;;;;;;13.76;100.00;101168.28;5057701;28;20048;-84
2022/10/26 04:33:39;;;;;;;5.57;1.05;;;;;;;13.78;100.00;101166.34;5045961;28;20063;-86
2022/10/26 04:36:04;;;;;;;3.03;0.52;;;;;;;13.80;100.00;101153.94;5044321;28;20033;-87
2022/10/26 04:38:30;;;;;;;5.20;0.60;;;;;;;13.80;100.00;101159.16;5042603;28;20037;-84
2022/10/26 04:40:55;;;;;;;3.90;0.55;;;;;;;13.76;100.00;101149.97;5054139;28;20033;-87
2022/10/26 04:43:21;;;;;;;1.60;0.50;;;;;;;13.73;100.00;101148.47;5044879;28;20140;-85
2022/10/26 04:45:46;;;;;;;1.42;0.40;;;;;;;13.72;100.00;101145.97;5045410;28;20051;-87
2022/10/26 04:48:12;;;;;;;3.08;0.47;;;;;;;13.72;100.00;101143.38;5035580;28;20104;-85
2022/10/26 04:50:39;;;;;;;2.90;0.40;;;;;;;13.70;100.00;101154.03;5038910;28;20095;-85
2022/10/26 04:53:05;;;;;;;2.78;0.50;;;;;;;13.71;100.00;101157.44;5043716;28;20107;-86
2022/10/26 04:55:31;;;;;;;10.40;0.60;;;;;;;13.71;100.00;101165.28;5045301;28;20044;-87
2022/10/26 04:57:56;;;;;;;4.63;1.15;;;;;;;13.70;100.00;101153.19;5043199;28;20029;-88
2022/10/26 05:00:21;;;;;;;5.68;0.57;;;;;;;13.66;100.00;101157.06;5041072;28;20681;-87
2022/10/26 05:02:47;;;;;;;2.65;0.60;;;;;;;13.64;100.00;101153.78;5052504;28;20052;-86
2022/10/26 05:05:12;;;;;;;3.70;0.73;;;;;;;13.64;100.00;101159.03;5063963;28;20107;-86
2022/10/26 05:07:38;;;;;;;5.85;0.60;;;;;;;13.65;100.00;101161.50;5064388;28;20038;-86
2022/10/26 05:10:04;;;;;;;1.00;0.40;;;;;;;13.64;100.00;101162.47;5070483;28;20524;-86
2022/10/26 05:12:29;;;;;;;6.05;0.80;;;;;;;13.63;100.00;101170.47;5063574;28;20043;-86
2022/10/26 05:14:57;;;;;;;5.20;0.60;;;;;;;13.62;100.00;101177.50;5068914;28;20161;-85
2022/10/26 05:17:24;;;;;;;4.88;0.73;;;;;;;13.63;100.00;101178.31;5071377;28;20124;-86
2022/10/26 05:19:54;;;;;;;2.97;0.40;;;;;;;13.60;100.00;101188.13;5068913;28;20040;-86
2022/10/26 05:22:23;;;;;;;1.67;0.43;;;;;;;13.60;100.00;101201.22;5063579;28;20044;-87
2022/10/26 05:24:49;;;;;;;2.00;0.50;;;;;;;13.56;100.00;101199.84;5068263;28;20427;-86
2022/10/26 05:27:14;;;;;;;3.25;1.38;;;;;;;13.49;100.00;101205.81;5066767;28;20032;-85
2022/10/26 05:29:39;;;;;;;4.10;0.50;;;;;;;13.47;100.00;101205.13;5069608;28;20039;-87
2022/10/26 05:32:05;;;;;;;4.43;0.82;;;;;;;13.45;100.00;101196.59;5068670;28;20036;-85
2022/10/26 05:34:30;;;;;;;4.05;0.50;;;;;;;13.45;100.00;101193.97;5070803;28;20044;-85
2022/10/26 05:36:56;;;;;;;2.15;0.40;;;;;;;13.47;100.00;101198.09;5065709;28;20527;-85
2022/10/26 05:39:21;;;;;;;3.53;0.50;;;;;;;13.48;100.00;101191.06;5059848;28;20069;-87
2022/10/26 05:41:47;;;;;;;3.92;0.40;;;;;;;13.51;100.00;101190.78;5067433;28;20024;-86
2022/10/26 05:44:12;;;;;;;2.33;0.40;;;;;;;13.55;100.00;101192.97;5065722;28;20032;-86
2022/10/26 05:46:37;;;;;;;3.30;0.47;;;;;;;13.57;100.00;101204.13;5065678;28;20119;-85
2022/10/26 05:49:03;;;;;;;7.15;0.50;;;;;;;13.62;100.00;101203.69;5053025;28;20450;-86
2022/10/26 05:51:28;;;;;;;5.60;0.65;;;;;;;13.65;100.00;101197.31;5063048;28;20037;-83
2022/10/26 05:53:54;;;;;;;4.75;0.63;;;;;;;13.68;100.00;101199.66;5066811;28;20037;-86
2022/10/26 05:56:32;;;;;;;2.45;0.50;;;;;;;13.71;100.00;101197.53;5070494;28;20032;-83
2022/10/26 05:58:58;;;;;;;4.93;0.65;;;;;;;13.73;100.00;101211.31;5068896;28;20040;-82
2022/10/26 06:01:26;;;;;;;3.35;0.60;;;;;;;13.77;100.00;101201.38;5067965;28;20041;-85
2022/10/26 06:03:56;;;;;;;3.13;0.70;;;;;;;13.79;100.00;101202.03;5067794;28;20118;-85
2022/10/26 06:06:22;;;;;;;2.90;0.50;;;;;;;13.81;100.00;101206.16;5066276;28;20028;-85
2022/10/26 06:08:48;;;;;;;3.92;0.82;;;;;;;13.79;100.00;101202.03;5066616;28;20039;-83
2022/10/26 06:11:13;;;;;;;1.90;0.68;;;;;;;13.79;100.00;101202.03;5067211;28;20031;-84
2022/10/26 06:13:39;;;;;;;3.03;0.55;;;;;;;13.81;100.00;101210.56;5063619;28;20227;-84
2022/10/26 06:16:28;;;;;;;4.70;0.90;;;;;;;13.83;100.00;101214.69;5067719;28;20031;-85
2022/10/26 06:19:25;;;;;;;8.63;0.75;;;;;;;13.84;100.00;101226.00;5067423;28;20086;-84
2022/10/26 06:22:16;;;;;;;3.00;0.50;;;;;;;13.84;100.00;101224.22;5061615;28;20541;-84
2022/10/26 06:25:00;;;;;;;3.88;0.63;;;;;;;13.84;100.00;101228.63;5047158;28;20056;-85
2022/10/26 06:27:26;;;;;;;5.28;1.10;;;;;;;13.86;100.00;101226.69;5066984;28;20103;-84
2022/10/26 06:30:11;;;;;;;9.23;0.75;;;;;;;13.87;100.00;101228.31;5064370;28;20230;-83
2022/10/26 06:32:39;;;;;;;2.20;0.70;;;;;;;13.88;100.00;101237.84;5062747;28;20078;-83
2022/10/26 06:35:35;;;;;;;2.70;0.80;;;;;;;13.86;100.00;101234.53;5065563;28;20107;-85
2022/10/26 06:38:06;;;;;;;4.93;1.30;;;;;;;13.84;100.00;101241.72;5059661;28;20040;-85
2022/10/26 06:40:35;;;;;;;3.53;0.88;;;;;;;13.84;100.00;101239.91;5044875;28;20082;-85
2022/10/26 06:43:01;;;;;;;4.28;1.02;;;;;;;13.88;100.00;101249.13;5069947;28;20044;-86
2022/10/26 06:45:27;;;;;;;4.07;2.08;;;;;;;13.93;100.00;101243.47;5081524;28;20165;-86
2022/10/26 06:48:09;;;;;;;3.10;0.80;;;;;;;13.97;100.00;101257.09;5081400;28;20055;-81
2022/10/26 06:50:47;;;;;;;4.85;0.93;;;;;;;13.98;100.00;101251.69;5070397;28;20059;-83
2022/10/26 06:53:31;;;;;;;4.30;0.90;;;;;;;14.02;100.00;101253.06;5065188;28;20090;-81
2022/10/26 06:55:58;;;;;;;5.90;0.90;;;;;;;14.03;100.00;101249.47;5060201;28;20032;-83
2022/10/26 06:58:28;;;;;;;6.57;1.00;;;;;;;14.06;100.00;101256.22;5051210;28;20432;-83
2022/10/26 07:00:55;;;;;;;3.50;0.50;;;;;;;14.14;100.00;101256.28;5054153;28;20055;-84
2022/10/26 07:03:20;;;;;;;4.25;0.50;;;;;;;14.17;100.00;101259.44;5067790;28;20052;-83
2022/10/26 07:05:46;;;;;;;3.92;0.50;;;;;;;14.20;100.00;101253.88;5063204;28;20198;-82
2022/10/26 07:08:11;;;;;;;4.05;0.60;;;;;;;14.21;100.00;101262.56;5066618;28;20449;-83
2022/10/26 07:10:38;;;;;;;3.90;0.80;;;;;;;14.23;100.00;101271.09;5081422;28;20036;-83
2022/10/26 07:13:08;;;;;;;2.83;0.57;;;;;;;14.26;100.00;101276.88;5071974;28;20160;-84
2022/10/26 07:15:34;;;;;;;3.90;1.73;;;;;;;14.28;100.00;101280.19;5067262;28;20111;-84
2022/10/26 07:18:04;;;;;;;2.75;0.57;;;;;;;14.27;100.00;101286.38;5069247;28;20044;-82
2022/10/26 07:20:31;;;;;;;10.02;0.63;;;;;;;14.27;100.00;101291.63;5063073;28;20438;-84
2022/10/26 07:22:57;;;;;;;5.22;0.70;;;;;;;14.30;100.00;101287.91;5064249;28;20050;-81
2022/10/26 07:25:24;;;;;;;5.38;0.68;;;;;;;14.32;100.00;101290.38;5073681;28;20111;-82
2022/10/26 07:27:50;;;;;;;4.28;0.52;;;;;;;14.31;100.00;101288.72;5059773;28;20067;-83
2022/10/26 07:30:16;;;;;;;2.40;0.98;;;;;;;14.35;100.00;101297.94;5055739;28;20699;-81
2022/10/26 07:32:43;;;;;;;6.82;1.40;;;;;;;14.36;100.00;101296.97;5052151;28;20502;-83
2022/10/26 07:35:08;;;;;;;8.30;1.67;;;;;;;14.39;100.00;101304.53;5068167;28;20564;-81
2022/10/26 07:37:34;;;;;;;6.88;1.73;;;;;;;14.39;100.00;101299.28;5064221;28;20033;-84
2022/10/26 07:39:59;;;;;;;5.18;1.20;;;;;;;14.42;100.00;101301.66;5062012;28;20040;-83
2022/10/26 07:42:25;;;;;;;6.43;0.75;;;;;;;14.41;100.00;101300.81;5072045;28;20115;-82
2022/10/26 07:44:50;;;;;;;6.20;0.80;;;;;;;14.48;100.00;101298.44;5066841;28;20459;-81
2022/10/26 07:47:15;;;;;;;4.43;0.95;;;;;;;14.54;100.00;101289.97;5063220;28;20086;-82
2022/10/26 07:49:41;;;;;;;3.85;0.55;;;;;;;14.62;100.00;101295.28;5061448;28;20467;-83
2022/10/26 07:52:06;;;;;;;7.90;0.68;;;;;;;14.68;100.00;101292.03;5064327;28;20146;-84
2022/10/26 07:54:32;;;;;;;5.90;0.98;;;;;;;14.71;100.00;101296.97;5063017;28;20035;-82
2022/10/26 07:56:58;;;;;;;2.72;0.50;;;;;;;14.75;100.00;101298.34;5063660;28;20123;-79
2022/10/26 07:59:23;;;;;;;2.15;0.50;;;;;;;14.81;100.00;101286.41;5062958;28;20036;-79
2022/10/26 08:01:48;;;;;;;2.88;0.98;;;;;;;14.89;100.00;101278.59;5067284;28;20585;-80
2022/10/26 08:04:15;;;;;;;4.25;0.60;;;;;;;15.01;100.00;101287.88;5069824;28;20506;-82
2022/10/26 08:06:40;;;;;;;2.70;0.73;;;;;;;15.09;100.00;101281.88;5064278;28;20115;-80
2022/10/26 08:09:05;;;;;;;7.32;0.65;;;;;;;15.12;100.00;101289.44;5065522;28;20115;-80
2022/10/26 08:11:31;;;;;;;2.80;0.85;;;;;;;15.18;100.00;101281.75;5063239;28;20032;-80
2022/10/26 08:13:57;;;;;;;4.93;0.73;;;;;;;15.24;100.00;101275.06;5066406;28;20028;-80
2022/10/26 08:16:22;;;;;;;4.70;0.93;;;;;;;15.28;100.00;101285.09;5063941;28;20448;-81
2022/10/26 08:18:51;;;;;;;5.35;0.90;;;;;;;15.37;100.00;101287.78;5064334;28;20036;-79
2022/10/26 08:21:17;;;;;;;4.47;0.95;;;;;;;15.41;100.00;101282.06;5062705;28;20028;-79
2022/10/26 08:23:43;;;;;;;8.27;1.27;;;;;;;15.53;100.00;101272.94;5064727;28;20442;-79
2022/10/26 08:26:12;;;;;;;5.90;1.13;;;;;;;15.59;100.00;101272.34;5066227;28;20032;-79
2022/10/26 08:28:38;;;;;;;4.88;1.48;;;;;;;15.62;100.00;101279.06;5064399;28;20056;-80
2022/10/26 08:31:04;;;;;;;4.40;1.45;;;;;;;15.58;100.00;101275.94;5062765;28;20044;-80
2022/10/26 08:33:30;;;;;;;4.90;1.10;;;;;;;15.62;100.00;101276.41;5066607;28;20040;-79
2022/10/26 08:35:58;;;;;;;4.60;1.05;;;;;;;15.65;100.00;101284.00;5064192;28;20029;-79
2022/10/26 08:38:23;;;;;;;6.15;1.50;;;;;;;15.73;100.00;101284.03;5066323;28;20111;-79
2022/10/26 08:40:50;;;;;;;9.30;1.80;;;;;;;15.81;100.00;101284.06;5065451;28;20552;-79
2022/10/26 08:43:21;;;;;;;6.32;1.33;;;;;;;15.84;100.00;101290.81;5046238;28;20048;-78
2022/10/26 08:45:58;;;;;;;5.70;0.98;;;;;;;15.85;100.00;101281.94;5065276;28;20037;-79
2022/10/26 08:48:29;;;;;;;5.00;1.00;;;;;;;15.97;100.00;101282.47;5065029;28;20392;-79
2022/10/26 08:51:00;;;;;;;3.85;0.90;;;;;;;15.99;100.00;101294.47;5064412;28;20151;-78
2022/10/26 08:53:42;;;;;;;7.40;1.00;;;;;;;16.10;100.00;101285.44;5062159;28;20115;-78
2022/10/26 08:56:19;;;;;;;5.47;0.80;;;;;;;16.21;100.00;101293.88;5062589;28;20055;-79
2022/10/26 08:58:53;;;;;;;4.90;1.45;;;;;;;16.29;100.00;101294.88;5064654;28;20399;-78
2022/10/26 09:01:19;;;;;;;6.35;1.60;;;;;;;16.32;100.00;101294.56;5061944;28;20521;-80
2022/10/26 09:03:44;;;;;;;3.15;0.60;;;;;;;16.32;100.00;101289.28;5047763;28;20041;-78
2022/10/26 09:06:19;;;;;;;6.40;1.42;;;;;;;16.37;100.00;101289.63;5046267;28;20175;-78
2022/10/26 09:09:25;;;;;;;4.88;1.08;;;;;;;16.58;100.00;101295.22;5046060;28;20555;-78
2022/10/26 09:12:13;;;;;;;5.40;1.42;;;;;;;16.69;100.00;101287.03;5029274;28;20620;-78
2022/10/26 09:14:45;;;;;;;5.63;1.40;;;;;;;16.73;100.00;101291.00;5035823;28;20037;-78
2022/10/26 09:17:30;;;;;;;6.78;1.80;;;;;;;16.77;100.00;101284.41;5045102;28;20070;-78
2022/10/26 09:20:13;;;;;;;4.85;1.75;;;;;;;16.90;100.00;101290.00;5045479;28;20475;-78
2022/10/26 09:22:57;;;;;;;5.85;2.00;;;;;;;16.95;100.00;101291.31;5045537;28;20071;-78
2022/10/26 09:25:28;;;;;;;5.90;2.67;;;;;;;17.02;100.00;101292.28;5021455;28;20025;-78
2022/10/26 09:28:00;;;;;;;6.57;2.80;;;;;;;17.05;100.00;101289.31;5043237;28;20045;-78
2022/10/26 09:30:27;;;;;;;10.55;2.90;;;;;;;17.12;100.00;101292.94;5048113;28;20070;-78
2022/10/26 09:32:57;;;;;;;10.55;2.50;;;;;;;17.21;100.00;101298.03;5046039;28;20404;-78
2022/10/26 09:35:48;;;;;;;7.07;3.42;;;;;;;17.20;100.00;101306.09;5047668;28;20037;-78
2022/10/26 09:38:39;;;;;;;7.10;2.95;;;;;;;17.18;100.00;101302.81;5047891;28;20025;-78
2022/10/26 09:41:26;;;;;;;15.38;3.75;;;;;;;17.15;100.00;101303.94;5048530;28;20037;-79
2022/10/26 09:43:56;;;;;;;10.10;3.72;;;;;;;17.18;100.00;101297.53;5051080;28;20444;-78
2022/10/26 09:46:39;;;;;;;9.45;3.78;;;;;;;17.27;100.00;101303.63;5051487;28;20433;-79
2022/10/26 09:49:07;;;;;;;9.20;3.88;;;;;;;17.29;100.00;101299.81;5049981;28;20029;-79
2022/10/26 09:51:38;;;;;;;12.98;4.30;;;;;;;17.28;100.00;101300.81;5047899;28;20503;-78
2022/10/26 09:54:15;;;;;;;8.50;3.55;;;;;;;17.45;100.00;101310.31;5047861;28;20116;-78
2022/10/26 09:56:43;;;;;;;11.45;4.25;;;;;;;17.51;100.00;101309.63;5048582;28;20037;-78
2022/10/26 09:59:11;;;;;;;8.07;4.85;;;;;;;17.55;100.00;101310.94;5047876;28;20118;-78
2022/10/26 10:01:36;;;;;;;11.10;5.40;;;;;;;17.55;100.00;101308.28;5047714;28;20489;-79
2022/10/26 10:04:21;;;;;;;9.88;5.30;;;;;;;17.49;100.00;101316.88;5068489;28;20034;-78
2022/10/26 10:06:52;;;;;;;14.43;6.07;;;;;;;17.53;100.00;101322.63;5068496;28;20432;-78
2022/10/26 10:09:23;;;;;;;14.55;6.22;;;;;;;17.55;100.00;101316.19;5066917;28;20606;-79
2022/10/26 10:11:54;;;;;;;13.65;5.35;;;;;;;17.63;100.00;101322.44;5068382;28;20040;-78
2022/10/26 10:14:25;;;;;;;11.13;6.55;;;;;;;17.67;100.00;101318.50;5068509;28;20028;-78
2022/10/26 10:16:58;;;;;;;14.77;7.47;;;;;;;17.70;100.00;101315.53;5068699;28;20075;-78
2022/10/26 10:19:26;;;;;;;17.17;6.85;;;;;;;17.79;100.00;101320.63;5063320;28;20028;-79
2022/10/26 10:21:55;;;;;;;13.07;7.20;;;;;;;17.90;100.00;101314.16;5068175;28;20134;-78
2022/10/26 10:24:32;;;;;;;11.75;6.43;;;;;;;18.03;100.00;101319.66;5066927;28;20105;-78
2022/10/26 10:27:00;;;;;;;15.73;6.88;;;;;;;18.06;100.00;101313.22;5068362;28;20116;-78
2022/10/26 10:29:32;;;;;;;11.80;6.80;;;;;;;18.18;100.00;101311.84;5066244;28;20040;-79
2022/10/26 10:32:00;;;;;;;15.10;7.10;;;;;;;18.27;100.00;101310.81;5064963;28;20036;-78
2022/10/26 10:34:28;;;;;;;12.30;7.72;;;;;;;18.31;100.00;101306.84;5044060;28;20032;-79
2022/10/26 10:36:54;;;;;;;13.18;6.57;;;;;;;18.36;100.00;101298.41;5067827;28;20137;-78
2022/10/26 10:39:39;;;;;;;15.15;7.40;;;;;;;18.53;100.00;101307.81;5066688;28;20108;-79
2022/10/26 10:42:14;;;;;;;13.15;6.88;;;;;;;18.55;100.00;101303.19;5068067;28;20540;-78
2022/10/26 10:44:42;;;;;;;18.92;6.70;;;;;;;18.56;100.00;101299.56;5063963;28;20056;-78
2022/10/26 10:47:18;;;;;;;11.80;6.47;;;;;;;18.64;100.00;101307.44;5047790;28;20036;-78
2022/10/26 10:50:00;;;;;;;12.48;6.18;;;;;;;18.64;100.00;101299.53;5062883;28;20167;-78
2022/10/26 10:52:31;;;;;;;12.23;6.70;;;;;;;18.56;100.00;101305.66;5049773;28;20168;-78
2022/10/26 10:55:23;;;;;;;10.45;6.38;;;;;;;18.58;100.00;101305.47;5052209;28;20043;-78
2022/10/26 10:58:26;;;;;;;14.50;6.50;;;;;;;18.59;100.00;101307.13;5039151;28;20496;-76
2022/10/26 11:00:54;;;;;;;14.18;6.57;;;;;;;18.64;100.00;101307.44;5067567;28;20032;-79
2022/10/26 11:03:38;;;;;;;14.85;7.43;;;;;;;18.70;100.00;101298.81;5067282;28;20554;-79
2022/10/26 11:06:17;;;;;;;15.25;6.60;;;;;;;18.79;100.00;101308.31;5067920;28;20094;-79
2022/10/26 11:08:54;;;;;;;15.07;7.57;;;;;;;18.86;100.00;101305.78;5060051;28;20484;-79
2022/10/26 11:11:24;;;;;;;10.93;6.15;;;;;;;18.93;100.00;101300.59;5066894;28;20041;-79
2022/10/26 11:13:56;;;;;;;12.23;6.65;;;;;;;18.94;100.00;101300.41;5067460;28;20475;-79
2022/10/26 11:16:48;;;;;;;13.98;7.07;;;;;;;18.89;100.00;101300.97;5055454;28;20041;-80
2022/10/26 11:19:19;;;;;;;15.82;6.65;;;;;;;19.04;100.00;101297.53;5027477;28;20037;-80
2022/10/26 11:21:48;;;;;;;12.52;7.22;;;;;;;19.12;100.00;101295.63;5061988;28;20040;-78
2022/10/26 11:24:37;;;;;;;9.98;7.45;;;;;;;19.22;100.00;101292.72;5064199;28;20444;-78
2022/10/26 11:27:16;;;;;;;13.13;7.75;;;;;;;19.22;100.00;101296.19;5067134;28;20474;-78
2022/10/26 11:29:58;;;;;;;12.73;6.60;;;;;;;19.17;100.00;101292.44;5067131;28;20047;-79
2022/10/26 11:32:33;;;;;;;18.35;5.93;;;;;;;19.10;100.00;101287.06;5062645;28;20028;-79